createdAt,value
2023-04-03T00:00:40.032Z,-0.9
2023-04-03T00:01:40.050Z,-0.8
2023-04-03T00:02:40.172Z,-0.8
2023-04-03T00:03:40.021Z,-0.8
2023-04-03T00:04:40.059Z,-0.8
2023-04-03T00:05:40.033Z,-0.8
2023-04-03T00:06:40.045Z,-0.8
2023-04-03T00:07:40.024Z,-0.8
2023-04-03T00:08:40.031Z,-0.8
2023-04-03T00:09:40.030Z,-0.8
2023-04-03T00:10:40.036Z,-0.8
2023-04-03T00:11:40.048Z,-0.8
2023-04-03T00:12:40.314Z,-0.8
2023-04-03T00:13:42.547Z,-0.8
2023-04-03T00:14:45.963Z,-0.8
2023-04-03T00:15:40.029Z,-0.8
2023-04-03T00:16:40.057Z,-0.7
2023-04-03T00:17:40.050Z,-0.7
2023-04-03T00:18:40.034Z,-0.7
2023-04-03T00:19:40.038Z,-0.7
2023-04-03T00:20:40.117Z,-0.7
2023-04-03T00:21:40.038Z,-0.7
2023-04-03T00:22:40.035Z,-0.7
2023-04-03T00:23:40.039Z,-0.7
2023-04-03T00:24:40.028Z,-0.7
2023-04-03T00:25:40.026Z,-0.8
2023-04-03T00:26:40.054Z,-0.8
2023-04-03T00:27:40.033Z,-0.8
2023-04-03T00:28:40.028Z,-0.8
2023-04-03T00:29:40.027Z,-0.8
2023-04-03T00:30:40.129Z,-0.8
2023-04-03T00:31:40.043Z,-0.8
2023-04-03T00:32:40.056Z,-0.8
2023-04-03T00:33:40.311Z,-0.8
2023-04-03T00:34:42.708Z,-0.8
2023-04-03T00:35:45.645Z,-0.8
2023-04-03T00:36:40.054Z,-0.8
2023-04-03T00:37:40.053Z,-0.8
2023-04-03T00:38:40.048Z,-0.8
2023-04-03T00:39:40.050Z,-0.8
2023-04-03T00:40:40.028Z,-0.8
2023-04-03T00:41:40.031Z,-0.8
2023-04-03T00:42:40.047Z,-0.8
2023-04-03T00:43:40.035Z,-0.8
2023-04-03T00:44:40.041Z,-0.8
2023-04-03T00:45:40.029Z,-0.8
2023-04-03T00:46:40.223Z,-0.8
2023-04-03T00:47:40.057Z,-0.8
2023-04-03T00:48:40.031Z,-0.8
2023-04-03T00:49:40.031Z,-0.8
2023-04-03T00:50:40.051Z,-0.8
2023-04-03T00:51:40.046Z,-0.8
2023-04-03T00:52:40.028Z,-0.8
2023-04-03T00:53:40.043Z,-0.8
2023-04-03T00:54:40.444Z,-0.8
2023-04-03T00:55:43.355Z,-0.8
2023-04-03T00:56:46.168Z,-0.9
2023-04-03T00:57:40.025Z,-0.9
2023-04-03T00:58:40.058Z,-1
2023-04-03T00:59:40.027Z,-1
2023-04-03T01:00:40.029Z,-1
2023-04-03T01:01:40.086Z,-1
2023-04-03T01:02:40.041Z,-1
2023-04-03T01:03:40.076Z,-1
2023-04-03T01:04:40.050Z,-1
2023-04-03T01:05:40.034Z,-1
2023-04-03T01:06:40.026Z,-1.1
2023-04-03T01:07:40.027Z,-1.1
2023-04-03T01:08:40.058Z,-1.1
2023-04-03T01:09:40.028Z,-1.1
2023-04-03T01:10:40.021Z,-1.1
2023-04-03T01:11:40.029Z,-1.1
2023-04-03T01:12:40.038Z,-1.1
2023-04-03T01:13:40.042Z,-1.1
2023-04-03T01:14:40.038Z,-1.2
2023-04-03T01:15:40.558Z,-1.2
2023-04-03T01:16:42.933Z,-1.2
2023-04-03T01:17:46.245Z,-1.2
2023-04-03T01:18:40.047Z,-1.2
2023-04-03T01:19:40.029Z,-1.2
2023-04-03T01:20:40.156Z,-1.2
2023-04-03T01:21:40.051Z,-1.2
2023-04-03T01:22:40.036Z,-1.3
2023-04-03T01:23:40.054Z,-1.3
2023-04-03T01:24:40.201Z,-1.4
2023-04-03T01:25:40.042Z,-1.4
2023-04-03T01:26:40.110Z,-1.4
2023-04-03T01:27:40.025Z,-1.5
2023-04-03T01:28:40.059Z,-1.5
2023-04-03T01:29:40.025Z,-1.5
2023-04-03T01:30:40.030Z,-1.5
2023-04-03T01:31:40.048Z,-1.5
2023-04-03T01:32:40.044Z,-1.5
2023-04-03T01:33:40.048Z,-1.5
2023-04-03T01:34:40.025Z,-1.5
2023-04-03T01:35:40.055Z,-1.5
2023-04-03T01:36:40.621Z,-1.5
2023-04-03T01:37:42.994Z,-1.6
2023-04-03T01:38:46.339Z,-1.6
2023-04-03T01:39:40.033Z,-1.7
2023-04-03T01:40:40.034Z,-1.7
2023-04-03T01:41:40.025Z,-1.7
2023-04-03T01:42:40.046Z,-1.7
2023-04-03T01:43:40.030Z,-1.7
2023-04-03T01:44:40.038Z,-1.7
2023-04-03T01:45:40.056Z,-1.7
2023-04-03T01:46:40.034Z,-1.7
2023-04-03T01:47:40.259Z,-1.7
2023-04-03T01:48:40.032Z,-1.7
2023-04-03T01:49:40.031Z,-1.7
2023-04-03T01:50:40.031Z,-1.7
2023-04-03T01:51:40.046Z,-1.7
2023-04-03T01:52:40.057Z,-1.7
2023-04-03T01:53:40.041Z,-1.7
2023-04-03T01:54:40.028Z,-1.7
2023-04-03T01:55:40.040Z,-1.7
2023-04-03T01:56:40.049Z,-1.7
2023-04-03T01:57:40.689Z,-1.7
2023-04-03T01:58:43.141Z,-1.7
2023-04-03T01:59:46.475Z,-1.7
2023-04-03T02:00:40.032Z,-1.7
2023-04-03T02:01:40.083Z,-1.8
2023-04-03T02:02:40.068Z,-1.8
2023-04-03T02:03:40.050Z,-1.8
2023-04-03T02:04:40.033Z,-1.8
2023-04-03T02:05:40.031Z,-1.9
2023-04-03T02:06:40.032Z,-1.9
2023-04-03T02:07:40.050Z,-1.9
2023-04-03T02:08:40.048Z,-1.9
2023-04-03T02:09:40.044Z,-1.9
2023-04-03T02:10:40.028Z,-1.9
2023-04-03T02:11:40.035Z,-1.9
2023-04-03T02:12:40.044Z,-1.9
2023-04-03T02:13:40.027Z,-1.9
2023-04-03T02:14:40.032Z,-1.9
2023-04-03T02:15:40.034Z,-1.9
2023-04-03T02:16:40.063Z,-1.9
2023-04-03T02:17:40.047Z,-1.9
2023-04-03T02:18:40.836Z,-1.9
2023-04-03T02:19:40.856Z,-1.9
2023-04-03T02:20:43.730Z,-1.9
2023-04-03T02:21:46.499Z,-1.9
2023-04-03T02:22:40.035Z,-1.9
2023-04-03T02:23:40.052Z,-1.9
2023-04-03T02:24:40.030Z,-1.9
2023-04-03T02:25:40.030Z,-1.9
2023-04-03T02:26:40.038Z,-1.9
2023-04-03T02:27:40.021Z,-1.9
2023-04-03T02:28:40.042Z,-1.9
2023-04-03T02:29:40.029Z,-1.9
2023-04-03T02:30:40.176Z,-1.8
2023-04-03T02:31:40.034Z,-1.8
2023-04-03T02:32:40.053Z,-1.8
2023-04-03T02:33:40.045Z,-1.8
2023-04-03T02:34:40.027Z,-1.8
2023-04-03T02:35:40.192Z,-1.8
2023-04-03T02:36:40.064Z,-1.8
2023-04-03T02:37:40.023Z,-1.7
2023-04-03T02:38:40.035Z,-1.7
2023-04-03T02:39:40.024Z,-1.7
2023-04-03T02:40:40.872Z,-1.7
2023-04-03T02:41:43.304Z,-1.7
2023-04-03T02:42:46.150Z,-1.7
2023-04-03T02:43:40.029Z,-1.7
2023-04-03T02:44:40.042Z,-1.7
2023-04-03T02:45:40.027Z,-1.7
2023-04-03T02:46:40.022Z,-1.7
2023-04-03T02:47:40.039Z,-1.7
2023-04-03T02:48:40.028Z,-1.7
2023-04-03T02:49:40.025Z,-1.7
2023-04-03T02:50:40.029Z,-1.7
2023-04-03T02:51:40.027Z,-1.7
2023-04-03T02:52:40.037Z,-1.7
2023-04-03T02:53:40.032Z,-1.7
2023-04-03T02:54:40.327Z,-1.7
2023-04-03T02:55:40.025Z,-1.7
2023-04-03T02:56:40.027Z,-1.7
2023-04-03T02:57:40.036Z,-1.7
2023-04-03T02:58:40.032Z,-1.7
2023-04-03T02:59:40.034Z,-1.7
2023-04-03T03:00:40.029Z,-1.7
2023-04-03T03:01:40.894Z,-1.7
2023-04-03T03:02:43.935Z,-1.7
2023-04-03T03:03:46.741Z,-1.7
2023-04-03T03:04:40.102Z,-1.7
2023-04-03T03:05:40.029Z,-1.7
2023-04-03T03:06:40.054Z,-1.7
2023-04-03T03:07:40.031Z,-1.7
2023-04-03T03:08:40.037Z,-1.7
2023-04-03T03:09:40.032Z,-1.7
2023-04-03T03:10:40.030Z,-1.7
2023-04-03T03:11:40.027Z,-1.7
2023-04-03T03:12:40.038Z,-1.7
2023-04-03T03:13:40.038Z,-1.8
2023-04-03T03:14:40.050Z,-1.8
2023-04-03T03:15:40.042Z,-1.8
2023-04-03T03:16:40.036Z,-1.8
2023-04-03T03:17:40.056Z,-1.8
2023-04-03T03:18:40.062Z,-1.8
2023-04-03T03:19:40.032Z,-1.9
2023-04-03T03:20:40.030Z,-1.9
2023-04-03T03:21:40.078Z,-1.9
2023-04-03T03:22:41.032Z,-1.9
2023-04-03T03:23:44.148Z,-1.9
2023-04-03T03:24:46.937Z,-1.9
2023-04-03T03:25:40.031Z,-1.9
2023-04-03T03:26:40.050Z,-1.9
2023-04-03T03:27:40.026Z,-1.9
2023-04-03T03:28:40.026Z,-1.9
2023-04-03T03:29:40.037Z,-1.9
2023-04-03T03:30:40.041Z,-1.9
2023-04-03T03:31:40.101Z,-1.9
2023-04-03T03:32:40.051Z,-1.9
2023-04-03T03:33:40.028Z,-1.9
2023-04-03T03:34:40.028Z,-1.9
2023-04-03T03:35:40.241Z,-2
2023-04-03T03:36:40.053Z,-2
2023-04-03T03:37:40.023Z,-2
2023-04-03T03:38:40.026Z,-2
2023-04-03T03:39:40.031Z,-2
2023-04-03T03:40:40.024Z,-2
2023-04-03T03:41:40.041Z,-2
2023-04-03T03:42:40.111Z,-2
2023-04-03T03:43:40.565Z,-2
2023-04-03T03:44:44.231Z,-2.1
2023-04-03T03:45:47.069Z,-2.1
2023-04-03T03:46:40.063Z,-2.1
2023-04-03T03:47:40.039Z,-2.2
2023-04-03T03:48:40.031Z,-2.2
2023-04-03T03:49:40.029Z,-2.2
2023-04-03T03:50:40.032Z,-2.2
2023-04-03T03:51:40.037Z,-2.2
2023-04-03T03:52:40.030Z,-2.2
2023-04-03T03:53:40.040Z,-2.2
2023-04-03T03:54:40.027Z,-2.2
2023-04-03T03:55:40.041Z,-2.2
2023-04-03T03:56:40.039Z,-2.2
2023-04-03T03:57:40.023Z,-2.2
2023-04-03T03:58:40.081Z,-2.2
2023-04-03T03:59:40.036Z,-2.3
2023-04-03T04:00:40.026Z,-2.3
2023-04-03T04:01:40.082Z,-2.3
2023-04-03T04:02:40.157Z,-2.3
2023-04-03T04:03:40.092Z,-2.3
2023-04-03T04:04:40.034Z,-2.3
2023-04-03T04:05:42.669Z,-2.3
2023-04-03T04:06:45.426Z,-2.4
2023-04-03T04:07:40.030Z,-2.4
2023-04-03T04:08:40.052Z,-2.4
2023-04-03T04:09:40.035Z,-2.4
2023-04-03T04:10:40.028Z,-2.4
2023-04-03T04:11:40.038Z,-2.4
2023-04-03T04:12:40.160Z,-2.4
2023-04-03T04:13:40.052Z,-2.4
2023-04-03T04:14:40.034Z,-2.5
2023-04-03T04:15:40.286Z,-2.5
2023-04-03T04:16:40.037Z,-2.5
2023-04-03T04:17:40.108Z,-2.5
2023-04-03T04:18:40.064Z,-2.5
2023-04-03T04:19:40.029Z,-2.5
2023-04-03T04:20:40.023Z,-2.5
2023-04-03T04:21:40.033Z,-2.5
2023-04-03T04:22:40.088Z,-2.5
2023-04-03T04:23:40.054Z,-2.5
2023-04-03T04:25:41.352Z,-2.5
2023-04-03T04:26:44.467Z,-2.5
2023-04-03T04:27:47.228Z,-2.6
2023-04-03T04:28:40.026Z,-2.6
2023-04-03T04:29:40.190Z,-2.6
2023-04-03T04:30:40.066Z,-2.6
2023-04-03T04:31:40.039Z,-2.6
2023-04-03T04:32:40.093Z,-2.7
2023-04-03T04:33:40.031Z,-2.7
2023-04-03T04:34:40.084Z,-2.7
2023-04-03T04:35:40.310Z,-2.7
2023-04-03T04:36:40.095Z,-2.8
2023-04-03T04:37:40.035Z,-2.8
2023-04-03T04:38:40.033Z,-2.8
2023-04-03T04:39:40.037Z,-2.8
2023-04-03T04:40:40.033Z,-2.8
2023-04-03T04:41:40.027Z,-2.8
2023-04-03T04:42:40.034Z,-2.8
2023-04-03T04:43:40.034Z,-2.8
2023-04-03T04:44:40.023Z,-2.8
2023-04-03T04:45:40.146Z,-2.8
2023-04-03T04:46:41.416Z,-2.8
2023-04-03T04:47:44.530Z,-2.8
2023-04-03T04:48:47.306Z,-2.8
2023-04-03T04:49:40.027Z,-2.8
2023-04-03T04:50:40.211Z,-2.9
2023-04-03T04:51:48.715Z,-2.9
2023-04-03T04:52:40.082Z,-2.9
2023-04-03T04:53:40.034Z,-2.9
2023-04-03T04:54:40.029Z,-2.9
2023-04-03T04:55:40.029Z,-2.9
2023-04-03T04:56:40.032Z,-2.9
2023-04-03T04:57:40.087Z,-2.9
2023-04-03T04:58:40.037Z,-2.9
2023-04-03T04:59:40.031Z,-2.8
2023-04-03T05:00:40.076Z,-2.8
2023-04-03T05:01:40.249Z,-2.9
2023-04-03T05:02:40.099Z,-2.8
2023-04-03T05:03:40.032Z,-2.8
2023-04-03T05:04:40.057Z,-2.9
2023-04-03T05:05:40.256Z,-2.8
2023-04-03T05:06:40.030Z,-2.8
2023-04-03T05:07:41.506Z,-2.8
2023-04-03T05:08:44.469Z,-2.8
2023-04-03T05:09:47.439Z,-2.8
2023-04-03T05:10:40.026Z,-2.8
2023-04-03T05:11:40.035Z,-2.8
2023-04-03T05:12:40.047Z,-2.8
2023-04-03T05:13:40.028Z,-2.8
2023-04-03T05:14:40.033Z,-2.8
2023-04-03T05:15:40.221Z,-2.8
2023-04-03T05:16:40.030Z,-2.8
2023-04-03T05:17:40.076Z,-2.8
2023-04-03T05:18:40.030Z,-2.8
2023-04-03T05:19:40.029Z,-2.8
2023-04-03T05:20:40.033Z,-2.8
2023-04-03T05:21:40.235Z,-2.8
2023-04-03T05:22:40.034Z,-2.8
2023-04-03T05:23:40.035Z,-2.7
2023-04-03T05:24:40.034Z,-2.7
2023-04-03T05:25:40.035Z,-2.6
2023-04-03T05:26:40.040Z,-2.6
2023-04-03T05:27:40.038Z,-2.6
2023-04-03T05:28:41.598Z,-2.6
2023-04-03T05:29:45.251Z,-2.6
2023-04-03T05:30:47.453Z,-2.6
2023-04-03T05:31:40.042Z,-2.6
2023-04-03T05:32:40.050Z,-2.5
2023-04-03T05:33:40.050Z,-2.5
2023-04-03T05:34:40.036Z,-2.5
2023-04-03T05:35:40.296Z,-2.5
2023-04-03T05:36:40.038Z,-2.5
2023-04-03T05:37:40.025Z,-2.5
2023-04-03T05:38:40.079Z,-2.5
2023-04-03T05:39:40.036Z,-2.5
2023-04-03T05:40:40.030Z,-2.4
2023-04-03T05:41:40.046Z,-2.4
2023-04-03T05:42:40.021Z,-2.4
2023-04-03T05:43:40.179Z,-2.4
2023-04-03T05:44:40.028Z,-2.3
2023-04-03T05:45:40.042Z,-2.3
2023-04-03T05:46:40.031Z,-2.3
2023-04-03T05:47:40.104Z,-2.3
2023-04-03T05:48:40.043Z,-2.2
2023-04-03T05:49:40.029Z,-2.2
2023-04-03T05:50:41.743Z,-2.2
2023-04-03T05:51:44.799Z,-2.2
2023-04-03T05:52:47.649Z,-2.2
2023-04-03T05:53:40.044Z,-2.2
2023-04-03T05:54:40.052Z,-2.1
2023-04-03T05:55:40.059Z,-2.1
2023-04-03T05:56:40.030Z,-2.1
2023-04-03T05:57:40.099Z,-2.1
2023-04-03T05:58:40.045Z,-2
2023-04-03T05:59:40.029Z,-2
2023-04-03T06:00:40.031Z,-2
2023-04-03T06:01:40.030Z,-2
2023-04-03T06:02:40.108Z,-2
2023-04-03T06:03:40.506Z,-2
2023-04-03T06:04:40.118Z,-1.9
2023-04-03T06:05:40.220Z,-1.9
2023-04-03T06:06:40.037Z,-1.9
2023-04-03T06:07:40.052Z,-1.8
2023-04-03T06:08:40.023Z,-1.8
2023-04-03T06:09:40.027Z,-1.7
2023-04-03T06:10:40.488Z,-1.7
2023-04-03T06:11:41.156Z,-1.7
2023-04-03T06:12:44.015Z,-1.7
2023-04-03T06:13:40.022Z,-1.7
2023-04-03T06:14:40.028Z,-1.7
2023-04-03T06:15:40.030Z,-1.7
2023-04-03T06:16:40.226Z,-1.7
2023-04-03T06:17:40.072Z,-1.6
2023-04-03T06:18:40.032Z,-1.6
2023-04-03T06:19:40.027Z,-1.5
2023-04-03T06:20:40.381Z,-1.5
2023-04-03T06:21:40.030Z,-1.5
2023-04-03T06:22:40.039Z,-1.5
2023-04-03T06:23:40.028Z,-1.5
2023-04-03T06:24:40.269Z,-1.5
2023-04-03T06:25:40.020Z,-1.4
2023-04-03T06:26:40.028Z,-1.4
2023-04-03T06:27:40.033Z,-1.3
2023-04-03T06:28:40.166Z,-1.3
2023-04-03T06:29:40.034Z,-1.2
2023-04-03T06:30:40.283Z,-1.2
2023-04-03T06:31:40.044Z,-1.2
2023-04-03T06:32:42.921Z,-1.2
2023-04-03T06:33:45.706Z,-1.2
2023-04-03T06:34:40.021Z,-1.2
2023-04-03T06:35:40.045Z,-1.1
2023-04-03T06:36:40.022Z,-1.1
2023-04-03T06:37:40.038Z,-1.1
2023-04-03T06:38:40.032Z,-1
2023-04-03T06:39:40.021Z,-1
2023-04-03T06:40:40.161Z,-1
2023-04-03T06:41:40.029Z,-1
2023-04-03T06:42:40.071Z,-0.9
2023-04-03T06:43:40.022Z,-0.9
2023-04-03T06:44:40.031Z,-0.8
2023-04-03T06:45:40.178Z,-0.8
2023-04-03T06:46:40.106Z,-0.8
2023-04-03T06:47:40.060Z,-0.8
2023-04-03T06:48:40.021Z,-0.7
2023-04-03T06:49:40.027Z,-0.7
2023-04-03T06:50:40.026Z,-0.6
2023-04-03T06:51:40.202Z,-0.5
2023-04-03T06:52:40.090Z,-0.5
2023-04-03T06:53:42.527Z,-0.5
2023-04-03T06:54:45.827Z,-0.5
2023-04-03T06:55:40.324Z,-0.5
2023-04-03T06:56:40.029Z,-0.4
2023-04-03T06:57:40.029Z,-0.3
2023-04-03T06:58:40.049Z,-0.3
2023-04-03T06:59:40.035Z,-0.3
2023-04-03T07:00:40.027Z,-0.3
2023-04-03T07:01:40.054Z,-0.2
2023-04-03T07:02:40.063Z,-0.2
2023-04-03T07:03:40.045Z,-0.1
2023-04-03T07:04:40.031Z,-0.1
2023-04-03T07:05:40.377Z,-0.1
2023-04-03T07:06:40.032Z,-0.1
2023-04-03T07:07:40.022Z,0
2023-04-03T07:08:40.033Z,0
2023-04-03T07:09:40.039Z,0.1
2023-04-03T07:10:40.042Z,0.1
2023-04-03T07:11:40.028Z,0.1
2023-04-03T07:12:40.025Z,0.1
2023-04-03T07:13:40.188Z,0.1
2023-04-03T07:14:42.562Z,0.1
2023-04-03T07:15:45.980Z,0.1
2023-04-03T07:16:41.790Z,0.2
2023-04-03T07:17:40.073Z,0.2
2023-04-03T07:18:40.028Z,0.3
2023-04-03T07:19:40.208Z,0.3
2023-04-03T07:20:40.030Z,0.4
2023-04-03T07:21:40.032Z,0.4
2023-04-03T07:22:40.041Z,0.4
2023-04-03T07:23:40.040Z,0.5
2023-04-03T07:24:40.031Z,0.5
2023-04-03T07:25:40.050Z,0.5
2023-04-03T07:26:40.037Z,0.5
2023-04-03T07:27:40.044Z,0.5
2023-04-03T07:28:40.031Z,0.5
2023-04-03T07:29:40.033Z,0.6
2023-04-03T07:30:40.028Z,0.6
2023-04-03T07:31:40.065Z,0.6
2023-04-03T07:32:40.041Z,0.7
2023-04-03T07:33:40.029Z,0.7
2023-04-03T07:34:40.308Z,0.8
2023-04-03T07:35:42.679Z,0.8
2023-04-03T07:36:46.018Z,0.8
2023-04-03T07:37:40.050Z,0.8
2023-04-03T07:38:40.033Z,0.8
2023-04-03T07:39:40.025Z,0.8
2023-04-03T07:40:40.032Z,0.8
2023-04-03T07:41:40.028Z,0.9
2023-04-03T07:42:40.034Z,0.9
2023-04-03T07:43:40.042Z,1
2023-04-03T07:44:40.031Z,1
2023-04-03T07:45:40.258Z,1
2023-04-03T07:46:40.028Z,1.1
2023-04-03T07:47:40.070Z,1.1
2023-04-03T07:48:40.054Z,1.1
2023-04-03T07:49:40.046Z,1.1
2023-04-03T07:50:40.036Z,1.1
2023-04-03T07:51:40.039Z,1.2
2023-04-03T07:52:40.046Z,1.2
2023-04-03T07:53:40.051Z,1.3
2023-04-03T07:54:40.039Z,1.3
2023-04-03T07:55:40.550Z,1.4
2023-04-03T07:56:43.300Z,1.4
2023-04-03T07:57:46.194Z,1.4
2023-04-03T07:58:40.043Z,1.4
2023-04-03T07:59:40.034Z,1.4
2023-04-03T08:00:40.031Z,1.4
2023-04-03T08:01:40.029Z,1.5
2023-04-03T08:02:40.081Z,1.5
2023-04-03T08:03:40.091Z,1.5
2023-04-03T08:04:40.083Z,1.5
2023-04-03T08:05:40.133Z,1.5
2023-04-03T08:06:46.251Z,1.6
2023-04-03T08:07:40.027Z,1.6
2023-04-03T08:08:40.030Z,1.7
2023-04-03T08:09:40.034Z,1.7
2023-04-03T08:10:40.055Z,1.8
2023-04-03T08:11:40.028Z,1.8
2023-04-03T08:12:40.030Z,1.8
2023-04-03T08:13:40.032Z,1.8
2023-04-03T08:14:40.028Z,1.8
2023-04-03T08:15:40.080Z,1.9
2023-04-03T08:16:40.481Z,1.9
2023-04-03T08:17:42.888Z,1.9
2023-04-03T08:18:46.281Z,2
2023-04-03T08:19:40.029Z,2
2023-04-03T08:20:40.031Z,2.1
2023-04-03T08:21:40.041Z,2.1
2023-04-03T08:22:40.051Z,2.1
2023-04-03T08:23:40.041Z,2.1
2023-04-03T08:24:45.825Z,2.2
2023-04-03T08:25:40.024Z,2.2
2023-04-03T08:26:40.033Z,2.3
2023-04-03T08:27:40.071Z,2.3
2023-04-03T08:28:40.032Z,2.4
2023-04-03T08:29:40.037Z,2.4
2023-04-03T08:30:40.036Z,2.5
2023-04-03T08:31:40.034Z,2.5
2023-04-03T08:32:40.041Z,2.5
2023-04-03T08:33:40.030Z,2.5
2023-04-03T08:34:40.032Z,2.6
2023-04-03T08:35:40.380Z,2.6
2023-04-03T08:36:40.033Z,2.7
2023-04-03T08:37:40.029Z,2.7
2023-04-03T08:38:41.040Z,2.7
2023-04-03T08:39:44.074Z,2.8
2023-04-03T08:40:46.811Z,2.8
2023-04-03T08:41:40.052Z,2.8
2023-04-03T08:42:41.631Z,2.8
2023-04-03T08:43:40.080Z,2.9
2023-04-03T08:44:40.063Z,2.9
2023-04-03T08:45:40.133Z,3
2023-04-03T08:46:40.049Z,3
2023-04-03T08:47:40.047Z,3
2023-04-03T08:48:40.044Z,3.1
2023-04-03T08:49:40.089Z,3.2
2023-04-03T08:50:40.027Z,3.2
2023-04-03T08:51:40.036Z,3.2
2023-04-03T08:52:40.036Z,3.2
2023-04-03T08:53:40.064Z,3.2
2023-04-03T08:54:40.032Z,3.3
2023-04-03T08:55:40.242Z,3.3
2023-04-03T08:56:40.038Z,3.3
2023-04-03T08:57:40.042Z,3.3
2023-04-03T08:58:40.059Z,3.4
2023-04-03T08:59:40.522Z,3.4
2023-04-03T09:00:43.688Z,3.4
2023-04-03T09:01:46.932Z,3.4
2023-04-03T09:02:40.037Z,3.4
2023-04-03T09:03:40.045Z,3.4
2023-04-03T09:04:40.045Z,3.5
2023-04-03T09:05:40.258Z,3.5
2023-04-03T09:06:40.300Z,3.6
2023-04-03T09:07:40.031Z,3.6
2023-04-03T09:08:40.040Z,3.7
2023-04-03T09:09:40.050Z,3.7
2023-04-03T09:10:40.050Z,3.8
2023-04-03T09:11:40.028Z,3.8
2023-04-03T09:12:40.052Z,3.9
2023-04-03T09:13:40.038Z,3.9
2023-04-03T09:14:40.025Z,3.9
2023-04-03T09:15:40.063Z,3.9
2023-04-03T09:16:40.032Z,4
2023-04-03T09:17:40.037Z,4
2023-04-03T09:18:40.031Z,4
2023-04-03T09:19:40.095Z,4.1
2023-04-03T09:20:41.120Z,4.1
2023-04-03T09:21:44.291Z,4.1
2023-04-03T09:22:51.982Z,4.1
2023-04-03T09:23:40.027Z,4.2
2023-04-03T09:24:40.026Z,4.2
2023-04-03T09:25:40.022Z,4.3
2023-04-03T09:26:40.025Z,4.3
2023-04-03T09:27:40.069Z,4.3
2023-04-03T09:28:49.111Z,4.4
2023-04-03T09:29:40.026Z,4.4
2023-04-03T09:30:40.189Z,4.4
2023-04-03T09:31:40.897Z,4.4
2023-04-03T09:32:41.018Z,4.4
2023-04-03T09:33:40.032Z,4.4
2023-04-03T09:34:40.037Z,4.5
2023-04-03T09:35:47.851Z,4.5
2023-04-03T09:36:40.028Z,4.6
2023-04-03T09:37:41.098Z,4.6
2023-04-03T09:38:40.022Z,4.7
2023-04-03T09:39:40.056Z,4.7
2023-04-03T09:40:40.402Z,4.8
2023-04-03T09:41:41.206Z,4.8
2023-04-03T09:42:48.879Z,4.8
2023-04-03T09:43:46.633Z,4.9
2023-04-03T09:44:40.067Z,4.9
2023-04-03T09:45:40.039Z,5
2023-04-03T09:46:40.037Z,5
2023-04-03T09:47:40.144Z,5.1
2023-04-03T09:48:40.038Z,5.1
2023-04-03T09:49:40.057Z,5.2
2023-04-03T09:50:40.145Z,5.2
2023-04-03T09:51:40.031Z,5.2
2023-04-03T09:52:40.509Z,5.2
2023-04-03T09:53:40.047Z,5.2
2023-04-03T09:54:40.053Z,5.2
2023-04-03T09:55:40.036Z,5.2
2023-04-03T09:56:40.030Z,5.2
2023-04-03T09:57:40.158Z,5.2
2023-04-03T09:58:49.503Z,5.3
2023-04-03T09:59:40.045Z,5.3
2023-04-03T10:00:40.310Z,5.4
2023-04-03T10:01:40.035Z,5.4
2023-04-03T10:02:41.369Z,5.4
2023-04-03T10:03:44.392Z,5.5
2023-04-03T10:04:49.006Z,5.5
2023-04-03T10:05:40.025Z,5.6
2023-04-03T10:06:40.131Z,5.6
2023-04-03T10:07:41.199Z,5.7
2023-04-03T10:08:40.034Z,5.7
2023-04-03T10:09:40.030Z,5.7
2023-04-03T10:10:40.458Z,5.8
2023-04-03T10:11:40.023Z,5.8
2023-04-03T10:12:40.052Z,5.9
2023-04-03T10:13:48.949Z,5.9
2023-04-03T10:14:40.074Z,6
2023-04-03T10:15:40.082Z,6
2023-04-03T10:16:40.142Z,6.1
2023-04-03T10:17:40.120Z,6.1
2023-04-03T10:18:40.099Z,6.1
2023-04-03T10:19:40.025Z,6.1
2023-04-03T10:20:40.261Z,6.1
2023-04-03T10:21:40.024Z,6.1
2023-04-03T10:22:40.024Z,6.1
2023-04-03T10:23:41.389Z,6.1
2023-04-03T10:24:44.546Z,6.1
2023-04-03T10:25:47.354Z,6.1
2023-04-03T10:26:40.047Z,6.1
2023-04-03T10:27:40.071Z,6.1
2023-04-03T10:28:40.021Z,6.1
2023-04-03T10:29:40.039Z,6.1
2023-04-03T10:30:40.295Z,6.1
2023-04-03T10:31:40.047Z,6.1
2023-04-03T10:32:40.321Z,6.2
2023-04-03T10:33:40.041Z,6.2
2023-04-03T10:34:40.034Z,6.2
2023-04-03T10:35:40.051Z,6.2
2023-04-03T10:36:40.026Z,6.2
2023-04-03T10:37:40.139Z,6.2
2023-04-03T10:38:40.020Z,6.3
2023-04-03T10:39:40.031Z,6.3
2023-04-03T10:40:40.357Z,6.4
2023-04-03T10:41:40.035Z,6.4
2023-04-03T10:42:40.029Z,6.4
2023-04-03T10:43:40.035Z,6.5
2023-04-03T10:44:41.465Z,6.5
2023-04-03T10:45:44.643Z,6.5
2023-04-03T10:46:47.400Z,6.5
2023-04-03T10:48:40.024Z,6.6
2023-04-03T10:49:42.514Z,6.6
2023-04-03T10:50:40.191Z,6.6
2023-04-03T10:51:40.039Z,6.6
2023-04-03T10:52:41.311Z,6.6
2023-04-03T10:53:40.022Z,6.6
2023-04-03T10:54:40.026Z,6.5
2023-04-03T10:55:40.022Z,6.5
2023-04-03T10:56:40.025Z,6.5
2023-04-03T10:57:40.086Z,6.5
2023-04-03T10:58:40.154Z,6.5
2023-04-03T10:59:40.031Z,6.6
2023-04-03T11:00:40.193Z,6.6
2023-04-03T11:01:40.079Z,6.6
2023-04-03T11:02:40.089Z,6.6
2023-04-03T11:03:40.114Z,6.6
2023-04-03T11:04:40.030Z,6.7
2023-04-03T11:05:41.074Z,6.7
2023-04-03T11:06:44.155Z,6.7
2023-04-03T11:07:46.934Z,6.7
2023-04-03T11:08:40.089Z,6.8
2023-04-03T11:09:40.031Z,6.8
2023-04-03T11:10:40.034Z,6.8
2023-04-03T11:11:40.047Z,6.9
2023-04-03T11:12:40.035Z,6.9
2023-04-03T11:13:40.038Z,6.9
2023-04-03T11:14:40.037Z,6.9
2023-04-03T11:15:40.186Z,7
2023-04-03T11:16:47.368Z,7
2023-04-03T11:17:40.088Z,7
2023-04-03T11:18:40.071Z,7
2023-04-03T11:19:40.235Z,7
2023-04-03T11:20:40.032Z,7.1
2023-04-03T11:21:40.055Z,7.1
2023-04-03T11:22:40.056Z,7.2
2023-04-03T11:23:48.582Z,7.2
2023-04-03T11:24:40.039Z,7.2
2023-04-03T11:25:40.179Z,7.2
2023-04-03T11:26:41.783Z,7.2
2023-04-03T11:27:44.730Z,7.2
2023-04-03T11:28:47.640Z,7.2
2023-04-03T11:29:40.067Z,7.2
2023-04-03T11:30:40.052Z,7.2
2023-04-03T11:31:40.078Z,7.2
2023-04-03T11:32:40.067Z,7.2
2023-04-03T11:33:40.031Z,7.3
2023-04-03T11:34:40.051Z,7.3
2023-04-03T11:35:40.306Z,7.3
2023-04-03T11:36:40.096Z,7.3
2023-04-03T11:37:40.057Z,7.4
2023-04-03T11:38:40.040Z,7.4
2023-04-03T11:39:40.078Z,7.4
2023-04-03T11:40:40.030Z,7.4
2023-04-03T11:41:40.083Z,7.5
2023-04-03T11:42:40.071Z,7.5
2023-04-03T11:43:40.027Z,7.5
2023-04-03T11:44:40.107Z,7.6
2023-04-03T11:45:40.178Z,7.6
2023-04-03T11:46:40.041Z,7.6
2023-04-03T11:47:40.047Z,7.6
2023-04-03T11:48:42.044Z,7.6
2023-04-03T11:49:44.880Z,7.5
2023-04-03T11:50:40.030Z,7.5
2023-04-03T11:51:40.068Z,7.4
2023-04-03T11:52:42.460Z,7.4
2023-04-03T11:53:40.047Z,7.4
2023-04-03T11:54:44.657Z,7.3
2023-04-03T11:55:40.057Z,7.3
2023-04-03T11:56:40.027Z,7.4
2023-04-03T11:57:40.033Z,7.4
2023-04-03T11:58:40.056Z,7.4
2023-04-03T11:59:40.020Z,7.5
2023-04-03T12:00:40.060Z,7.5
2023-04-03T12:01:40.037Z,7.5
2023-04-03T12:02:51.602Z,7.5
2023-04-03T12:03:40.185Z,7.6
2023-04-03T12:04:40.081Z,7.6
2023-04-03T12:05:40.039Z,7.5
2023-04-03T12:06:40.022Z,7.5
2023-04-03T12:07:40.025Z,7.5
2023-04-03T12:08:40.027Z,7.5
2023-04-03T12:09:42.136Z,7.5
2023-04-03T12:10:44.978Z,7.5
2023-04-03T12:11:40.021Z,7.5
2023-04-03T12:12:40.071Z,7.5
2023-04-03T12:13:40.056Z,7.5
2023-04-03T12:14:40.022Z,7.5
2023-04-03T12:15:40.176Z,7.5
2023-04-03T12:16:40.044Z,7.5
2023-04-03T12:17:40.055Z,7.5
2023-04-03T12:18:40.043Z,7.5
2023-04-03T12:19:42.718Z,7.5
2023-04-03T12:20:40.030Z,7.5
2023-04-03T12:21:40.054Z,7.5
2023-04-03T12:22:40.060Z,7.5
2023-04-03T12:23:40.052Z,7.5
2023-04-03T12:24:40.020Z,7.5
2023-04-03T12:25:40.048Z,7.5
2023-04-03T12:26:47.936Z,7.6
2023-04-03T12:27:40.050Z,7.6
2023-04-03T12:28:40.029Z,7.6
2023-04-03T12:29:41.429Z,7.6
2023-04-03T12:30:41.680Z,7.6
2023-04-03T12:31:44.952Z,7.7
2023-04-03T12:32:40.048Z,7.7
2023-04-03T12:33:40.193Z,7.7
2023-04-03T12:34:40.042Z,7.7
2023-04-03T12:35:40.200Z,7.8
2023-04-03T12:36:40.065Z,7.9
2023-04-03T12:37:40.106Z,7.9
2023-04-03T12:38:40.024Z,7.9
2023-04-03T12:39:40.035Z,8
2023-04-03T12:40:40.032Z,7.9
2023-04-03T12:41:40.042Z,7.9
2023-04-03T12:42:40.051Z,7.8
2023-04-03T12:43:40.033Z,7.8
2023-04-03T12:44:40.052Z,7.8
2023-04-03T12:45:40.510Z,7.8
2023-04-03T12:46:40.093Z,7.8
2023-04-03T12:47:40.055Z,7.8
2023-04-03T12:48:40.035Z,7.8
2023-04-03T12:49:40.079Z,7.8
2023-04-03T12:50:40.034Z,7.8
2023-04-03T12:51:42.339Z,7.8
2023-04-03T12:52:45.138Z,7.8
2023-04-03T12:54:40.045Z,7.9
2023-04-03T12:55:40.188Z,7.9
2023-04-03T12:56:40.026Z,7.9
2023-04-03T12:57:40.051Z,7.9
2023-04-03T12:58:40.085Z,7.9
2023-04-03T12:59:40.037Z,7.9
2023-04-03T13:00:40.044Z,7.9
2023-04-03T13:01:40.090Z,7.9
2023-04-03T13:02:40.097Z,7.9
2023-04-03T13:03:40.118Z,7.9
2023-04-03T13:04:40.031Z,7.9
2023-04-03T13:05:40.193Z,7.9
2023-04-03T13:06:40.034Z,7.8
2023-04-03T13:07:40.064Z,7.8
2023-04-03T13:08:40.035Z,7.8
2023-04-03T13:09:40.039Z,7.8
2023-04-03T13:10:40.031Z,7.8
2023-04-03T13:11:40.032Z,7.8
2023-04-03T13:12:42.380Z,7.8
2023-04-03T13:13:45.248Z,7.9
2023-04-03T13:14:40.048Z,7.9
2023-04-03T13:15:40.173Z,8
2023-04-03T13:16:40.056Z,8
2023-04-03T13:17:40.058Z,8.1
2023-04-03T13:18:40.061Z,8.2
2023-04-03T13:19:40.230Z,8.2
2023-04-03T13:20:40.165Z,8.2
2023-04-03T13:21:40.049Z,8.2
2023-04-03T13:22:40.462Z,8.2
2023-04-03T13:23:40.062Z,8.2
2023-04-03T13:24:40.034Z,8.2
2023-04-03T13:25:40.030Z,8.2
2023-04-03T13:26:40.052Z,8.2
2023-04-03T13:27:40.030Z,8.2
2023-04-03T13:28:40.064Z,8.2
2023-04-03T13:29:40.036Z,8.2
2023-04-03T13:30:40.290Z,8.2
2023-04-03T13:31:40.082Z,8.2
2023-04-03T13:32:40.087Z,8.1
2023-04-03T13:33:42.536Z,8.1
2023-04-03T13:34:47.425Z,8.1
2023-04-03T13:35:40.063Z,8.1
2023-04-03T13:36:40.033Z,8
2023-04-03T13:37:40.038Z,8
2023-04-03T13:38:40.026Z,8